createdAt,value
2023-03-10T00:01:51.163Z,72.00
2023-03-10T00:04:31.339Z,72.20
2023-03-10T00:07:05.592Z,72.00
2023-03-10T00:09:37.815Z,72.00
2023-03-10T00:12:28.536Z,72.00
2023-03-10T00:15:02.182Z,72.10
2023-03-10T00:17:34.105Z,72.20
2023-03-10T00:20:12.323Z,72.50
2023-03-10T00:22:46.942Z,72.50
2023-03-10T00:25:26.840Z,72.50
2023-03-10T00:28:07.449Z,72.50
2023-03-10T00:30:44.099Z,72.70
2023-03-10T00:33:14.985Z,72.80
2023-03-10T00:35:52.221Z,72.80
2023-03-10T00:38:31.562Z,72.90
2023-03-10T00:41:09.054Z,73.00
2023-03-10T00:43:40.825Z,73.10
2023-03-10T00:46:15.776Z,73.40
2023-03-10T00:48:47.374Z,73.30
2023-03-10T00:51:23.400Z,73.50
2023-03-10T00:53:54.644Z,73.60
2023-03-10T00:56:28.835Z,73.70
2023-03-10T00:59:02.571Z,73.80
2023-03-10T01:01:33.746Z,73.80
2023-03-10T01:04:11.222Z,73.90
2023-03-10T01:06:49.927Z,74.00
2023-03-10T01:09:19.347Z,74.20
2023-03-10T01:11:50.133Z,74.30
2023-03-10T01:14:27.479Z,74.50
2023-03-10T01:16:58.043Z,74.60
2023-03-10T01:19:36.492Z,74.50
2023-03-10T01:22:16.320Z,74.70
2023-03-10T01:24:52.257Z,74.80
2023-03-10T01:27:25.580Z,75.10
2023-03-10T01:29:57.304Z,75.00
2023-03-10T01:32:30.160Z,75.10
2023-03-10T01:35:10.688Z,75.20
2023-03-10T01:37:44.971Z,75.30
2023-03-10T01:40:21.006Z,75.40
2023-03-10T01:42:53.365Z,75.50
2023-03-10T01:46:11.145Z,75.60
2023-03-10T01:48:45.868Z,75.60
2023-03-10T01:51:15.378Z,75.70
2023-03-10T01:53:49.642Z,75.60
2023-03-10T01:56:25.057Z,75.70
2023-03-10T01:59:07.376Z,75.70
2023-03-10T02:01:41.906Z,75.90
2023-03-10T02:04:23.150Z,76.00
2023-03-10T02:06:57.221Z,76.10
2023-03-10T02:09:29.812Z,76.10
2023-03-10T02:12:13.894Z,76.30
2023-03-10T02:14:55.869Z,76.40
2023-03-10T02:17:27.796Z,76.20
2023-03-10T02:20:27.804Z,76.30
2023-03-10T02:23:06.133Z,76.30
2023-03-10T02:25:46.647Z,76.50
2023-03-10T02:28:39.542Z,76.50
2023-03-10T02:31:13.124Z,76.60
2023-03-10T02:33:45.176Z,76.70
2023-03-10T02:36:26.819Z,76.80
2023-03-10T02:38:59.503Z,76.90
2023-03-10T02:41:43.601Z,77.00
2023-03-10T02:44:29.254Z,77.00
2023-03-10T02:47:05.390Z,77.00
2023-03-10T02:49:45.956Z,77.00
2023-03-10T02:52:28.136Z,77.20
2023-03-10T02:55:08.834Z,77.30
2023-03-10T02:57:40.382Z,77.40
2023-03-10T03:00:29.589Z,77.40
2023-03-10T03:03:00.511Z,77.60
2023-03-10T03:05:31.489Z,77.60
2023-03-10T03:08:10.842Z,78.00
2023-03-10T03:10:41.752Z,77.80
2023-03-10T03:13:20.213Z,78.00
2023-03-10T03:16:07.494Z,78.00
2023-03-10T03:18:48.761Z,78.10
2023-03-10T03:21:21.302Z,78.10
2023-03-10T03:24:05.065Z,78.20
2023-03-10T03:26:44.422Z,78.30
2023-03-10T03:29:26.640Z,78.50
2023-03-10T03:32:09.716Z,78.50
2023-03-10T03:34:50.519Z,78.60
2023-03-10T03:37:24.888Z,78.60
2023-03-10T03:40:15.572Z,78.50
2023-03-10T03:42:49.981Z,78.60
2023-03-10T03:45:21.767Z,78.70
2023-03-10T03:47:54.221Z,78.70
2023-03-10T03:50:25.277Z,78.80
2023-03-10T03:53:09.018Z,78.80
2023-03-10T03:55:39.893Z,78.90
2023-03-10T03:58:20.496Z,78.80
2023-03-10T04:00:52.819Z,78.90
2023-03-10T04:03:28.873Z,78.80
2023-03-10T04:06:03.169Z,79.00
2023-03-10T04:08:34.975Z,79.00
2023-03-10T04:11:16.476Z,79.20
2023-03-10T04:13:55.043Z,79.20
2023-03-10T04:16:30.233Z,79.30
2023-03-10T04:19:03.504Z,79.30
2023-03-10T04:21:36.249Z,79.40
2023-03-10T04:24:14.990Z,79.30
2023-03-10T04:26:59.922Z,79.40
2023-03-10T04:29:31.012Z,79.30
2023-03-10T04:32:18.025Z,79.40
2023-03-10T04:35:02.101Z,79.40
2023-03-10T04:37:33.558Z,79.40
2023-03-10T04:40:12.557Z,79.50
2023-03-10T04:42:53.002Z,79.70
2023-03-10T04:45:25.796Z,79.60
2023-03-10T04:47:57.220Z,79.60
2023-03-10T04:50:44.467Z,79.60
2023-03-10T04:53:15.271Z,79.70
2023-03-10T04:55:53.451Z,79.70
2023-03-10T04:58:31.278Z,79.80
2023-03-10T05:01:03.572Z,79.90
2023-03-10T05:03:41.285Z,79.90
2023-03-10T05:06:25.496Z,79.90
2023-03-10T05:09:36.925Z,80.00
2023-03-10T05:12:10.834Z,80.00
2023-03-10T05:14:47.670Z,79.90
2023-03-10T05:17:27.480Z,79.90
2023-03-10T05:20:04.972Z,79.90
2023-03-10T05:22:50.929Z,80.00
2023-03-10T05:25:37.828Z,80.00
2023-03-10T05:28:22.777Z,80.00
2023-03-10T05:31:09.472Z,80.00
2023-03-10T05:33:43.924Z,80.00
2023-03-10T05:36:15.479Z,80.10
2023-03-10T05:39:08.563Z,80.20
2023-03-10T05:41:47.253Z,80.30
2023-03-10T05:44:22.102Z,80.20
2023-03-10T05:46:55.809Z,80.50
2023-03-10T05:49:27.960Z,80.50
2023-03-10T05:52:09.136Z,80.50
2023-03-10T05:54:45.308Z,80.70
2023-03-10T05:57:19.309Z,80.70
2023-03-10T05:59:52.546Z,80.80
2023-03-10T06:02:28.289Z,80.80
2023-03-10T06:04:57.458Z,80.80
2023-03-10T06:07:28.384Z,80.70
2023-03-10T06:10:06.213Z,80.40
2023-03-10T06:12:35.517Z,80.50
2023-03-10T06:15:14.170Z,80.50
2023-03-10T06:18:02.993Z,80.80
2023-03-10T06:20:39.874Z,80.80
2023-03-10T06:23:15.955Z,80.80
2023-03-10T06:26:01.780Z,80.80
2023-03-10T06:28:36.249Z,80.70
2023-03-10T06:31:18.740Z,80.70
2023-03-10T06:33:49.291Z,80.70
2023-03-10T06:36:21.390Z,80.70
2023-03-10T06:38:57.269Z,80.80
2023-03-10T06:41:34.903Z,80.70
2023-03-10T06:44:14.465Z,80.90
2023-03-10T06:46:44.391Z,81.00
2023-03-10T06:49:15.602Z,81.00
2023-03-10T06:51:49.312Z,80.90
2023-03-10T06:54:25.840Z,81.00
2023-03-10T06:57:03.303Z,81.10
2023-03-10T06:59:40.140Z,81.00
2023-03-10T07:02:16.456Z,81.00
2023-03-10T07:04:54.046Z,80.90
2023-03-10T07:07:33.745Z,80.90
2023-03-10T07:10:20.083Z,80.90
2023-03-10T07:13:01.268Z,80.90
2023-03-10T07:15:39.869Z,80.90
2023-03-10T07:18:11.109Z,80.90
2023-03-10T07:20:47.036Z,80.90
2023-03-10T07:23:20.803Z,80.90
2023-03-10T07:25:56.420Z,80.90
2023-03-10T07:28:33.521Z,80.90
2023-03-10T07:31:07.374Z,81.00
2023-03-10T07:33:35.342Z,81.00
2023-03-10T07:36:12.347Z,81.10
2023-03-10T07:38:48.207Z,81.00
2023-03-10T07:41:24.363Z,80.90
2023-03-10T07:43:59.710Z,80.90
2023-03-10T07:46:30.406Z,80.90
2023-03-10T07:49:11.231Z,80.90
2023-03-10T07:51:41.409Z,80.90
2023-03-10T07:54:16.407Z,80.90
2023-03-10T07:56:57.208Z,80.90
2023-03-10T07:59:39.053Z,80.50
2023-03-10T08:02:16.756Z,80.60
2023-03-10T08:04:52.704Z,80.60
2023-03-10T08:07:30.608Z,80.70
2023-03-10T08:10:01.504Z,80.60
2023-03-10T08:12:31.881Z,80.60
2023-03-10T08:15:18.969Z,80.60
2023-03-10T08:17:54.772Z,80.60
2023-03-10T08:20:29.030Z,80.60
2023-03-10T08:23:08.889Z,80.50
2023-03-10T08:25:43.997Z,80.60
2023-03-10T08:28:16.568Z,80.60
2023-03-10T08:31:05.383Z,80.70
2023-03-10T08:33:46.674Z,80.60
2023-03-10T08:36:21.087Z,80.60
2023-03-10T08:38:56.480Z,80.50
2023-03-10T08:41:30.296Z,80.40
2023-03-10T08:44:11.764Z,80.40
2023-03-10T08:46:46.641Z,80.50
2023-03-10T08:49:24.396Z,80.50
2023-03-10T08:51:54.966Z,80.50
2023-03-10T08:54:24.343Z,80.50
2023-03-10T08:57:01.396Z,80.50
2023-03-10T08:59:38.238Z,80.60
2023-03-10T09:02:15.380Z,80.50
2023-03-10T09:04:53.012Z,80.50
2023-03-10T09:07:29.951Z,80.70
2023-03-10T09:10:02.776Z,80.90
2023-03-10T09:12:39.418Z,80.60
2023-03-10T09:15:11.494Z,80.60
2023-03-10T09:17:49.390Z,80.40
2023-03-10T09:20:28.909Z,80.20
2023-03-10T09:23:03.764Z,80.20
2023-03-10T09:25:37.256Z,80.00
2023-03-10T09:28:13.896Z,79.60
2023-03-10T09:30:48.335Z,79.20
2023-03-10T09:33:23.120Z,79.00
2023-03-10T09:36:05.583Z,78.90
2023-03-10T09:38:37.739Z,78.80
2023-03-10T09:41:45.144Z,78.80
2023-03-10T09:44:28.216Z,78.60
2023-03-10T09:47:12.606Z,78.20
2023-03-10T09:49:56.325Z,78.00
2023-03-10T09:52:39.519Z,77.90
2023-03-10T09:55:30.576Z,78.00
2023-03-10T09:58:04.749Z,77.90
2023-03-10T10:00:59.882Z,78.00
2023-03-10T10:03:52.744Z,78.10
2023-03-10T10:06:30.215Z,78.00
2023-03-10T10:09:10.933Z,78.10
2023-03-10T10:11:44.038Z,77.90
2023-03-10T10:14:29.864Z,78.00
2023-03-10T10:17:10.112Z,78.00
2023-03-10T10:19:48.063Z,78.10
2023-03-10T10:22:29.539Z,78.10
2023-03-10T10:25:12.976Z,78.00
2023-03-10T10:27:43.160Z,77.90
2023-03-10T10:30:39.736Z,77.70
2023-03-10T10:33:10.300Z,77.90
2023-03-10T10:35:53.699Z,78.30
2023-03-10T10:38:32.645Z,78.20
2023-03-10T10:41:11.318Z,78.10
2023-03-10T10:43:49.966Z,77.90
2023-03-10T10:46:32.904Z,77.70
2023-03-10T10:49:28.822Z,77.30
2023-03-10T10:51:59.768Z,77.20
2023-03-10T10:54:35.856Z,77.10
2023-03-10T10:57:09.696Z,76.80
2023-03-10T10:59:38.972Z,77.10
2023-03-10T11:02:25.192Z,77.20
2023-03-10T11:04:58.995Z,77.00
2023-03-10T11:07:37.066Z,76.70
2023-03-10T11:10:18.602Z,76.60
2023-03-10T11:13:22.807Z,76.60
2023-03-10T11:16:05.636Z,76.20
2023-03-10T11:19:10.494Z,76.40
2023-03-10T11:21:54.638Z,76.40
2023-03-10T11:24:39.986Z,76.10
2023-03-10T11:27:21.815Z,75.90
2023-03-10T11:30:05.140Z,75.60
2023-03-10T11:32:42.344Z,75.40
2023-03-10T11:35:27.125Z,75.40
2023-03-10T11:38:17.508Z,75.40
2023-03-10T11:40:51.517Z,75.50
2023-03-10T11:43:36.695Z,75.90
2023-03-10T11:46:18.642Z,76.10
2023-03-10T11:49:03.227Z,76.10
2023-03-10T11:51:43.217Z,76.20
2023-03-10T11:54:27.410Z,76.30
2023-03-10T11:57:06.666Z,76.30
2023-03-10T11:59:49.412Z,76.20
2023-03-10T12:02:27.530Z,76.40
2023-03-10T12:05:07.341Z,76.70
2023-03-10T12:07:49.343Z,77.00
2023-03-10T12:10:27.084Z,76.80
2023-03-10T12:13:00.937Z,77.00
2023-03-10T12:15:40.072Z,77.00
2023-03-10T12:18:14.150Z,76.90
2023-03-10T12:20:46.103Z,76.80
2023-03-10T12:23:44.189Z,76.70
2023-03-10T12:26:17.397Z,76.70
2023-03-10T12:28:46.395Z,77.00
2023-03-10T12:31:57.323Z,76.90
2023-03-10T12:34:38.846Z,76.80
2023-03-10T12:37:16.979Z,77.10
2023-03-10T12:39:49.507Z,77.20
2023-03-10T12:42:36.607Z,77.20
2023-03-10T12:45:29.787Z,76.90
2023-03-10T12:48:14.796Z,76.70
2023-03-10T12:50:57.016Z,76.70
2023-03-10T12:53:33.749Z,76.80
2023-03-10T12:56:41.966Z,76.80
2023-03-10T12:59:23.535Z,76.60
2023-03-10T13:02:03.231Z,76.70
2023-03-10T13:04:42.816Z,76.80
2023-03-10T13:07:18.549Z,76.80
2023-03-10T13:09:55.756Z,76.80
2023-03-10T13:12:40.770Z,76.80
2023-03-10T13:15:27.263Z,76.60
2023-03-10T13:18:17.675Z,76.70
2023-03-10T13:21:02.053Z,76.70
2023-03-10T13:23:36.982Z,76.70
2023-03-10T13:26:13.446Z,76.40
2023-03-10T13:28:59.163Z,76.30
2023-03-10T13:31:40.387Z,76.10
2023-03-10T13:34:20.851Z,76.50
2023-03-10T13:36:52.916Z,76.40
2023-03-10T13:39:35.533Z,76.50
2023-03-10T13:42:21.375Z,76.50
2023-03-10T13:45:01.962Z,76.60
2023-03-10T13:47:37.161Z,76.70
2023-03-10T13:50:15.903Z,76.70
2023-03-10T13:53:01.357Z,76.70
2023-03-10T13:55:39.938Z,76.70
2023-03-10T13:58:17.367Z,76.60
2023-03-10T14:00:53.383Z,76.50
2023-03-10T14:03:32.372Z,76.50
2023-03-10T14:06:01.301Z,76.50
2023-03-10T14:08:36.160Z,76.60
2023-03-10T14:11:40.226Z,76.60
2023-03-10T14:14:11.684Z,76.60
2023-03-10T14:16:51.085Z,76.60
2023-03-10T14:19:51.603Z,76.60
2023-03-10T14:23:04.739Z,76.80
2023-03-10T14:25:49.569Z,76.90
2023-03-10T14:28:32.730Z,76.80
2023-03-10T14:31:05.383Z,76.90
2023-03-10T14:33:47.533Z,77.00
2023-03-10T14:36:21.539Z,77.10
2023-03-10T14:38:54.152Z,77.30
2023-03-10T14:41:37.142Z,77.40
2023-03-10T14:44:19.703Z,77.50
2023-03-10T14:46:56.400Z,77.60
2023-03-10T14:49:32.240Z,77.60
2023-03-10T14:52:04.865Z,77.80
2023-03-10T14:54:44.931Z,77.80
2023-03-10T14:57:29.822Z,77.80
2023-03-10T15:00:00.403Z,77.80
2023-03-10T15:02:30.861Z,77.80
2023-03-10T15:05:05.258Z,78.00
2023-03-10T15:07:42.195Z,77.90
2023-03-10T15:10:14.026Z,77.90
2023-03-10T15:13:01.116Z,77.90
2023-03-10T15:15:39.733Z,78.00
2023-03-10T15:18:15.912Z,78.20
2023-03-10T15:20:49.298Z,78.20
2023-03-10T15:23:25.130Z,78.50
2023-03-10T15:25:56.200Z,78.60
2023-03-10T15:28:41.315Z,78.70
2023-03-10T15:31:18.162Z,78.80
2023-03-10T15:33:52.669Z,78.90
2023-03-10T15:36:32.117Z,79.00
2023-03-10T15:39:09.851Z,79.10
2023-03-10T15:41:45.343Z,79.20
2023-03-10T15:44:26.911Z,79.20
2023-03-10T15:47:01.643Z,79.50
2023-03-10T15:49:43.353Z,79.60
2023-03-10T15:52:15.578Z,79.70
2023-03-10T15:54:47.053Z,79.90
2023-03-10T15:57:18.920Z,80.00
2023-03-10T15:59:57.367Z,80.00
2023-03-10T16:02:28.324Z,80.00
2023-03-10T16:05:02.561Z,80.10
2023-03-10T16:07:43.117Z,80.20
2023-03-10T16:10:20.814Z,80.20
2023-03-10T16:12:51.723Z,80.60
2023-03-10T16:15:38.029Z,80.60
2023-03-10T16:18:06.212Z,80.70
2023-03-10T16:20:36.528Z,80.50
2023-03-10T16:23:08.157Z,80.20
2023-03-10T16:25:42.897Z,79.80
2023-03-10T16:28:11.702Z,79.80
2023-03-10T16:30:50.751Z,79.10
2023-03-10T16:33:27.750Z,79.10
2023-03-10T16:36:06.896Z,79.00
2023-03-10T16:38:47.112Z,79.00
2023-03-10T16:41:20.047Z,79.20
2023-03-10T16:43:52.561Z,78.90
2023-03-10T16:46:30.353Z,78.60
2023-03-10T16:49:05.227Z,78.40
2023-03-10T16:51:39.169Z,78.30
2023-03-10T16:54:12.154Z,78.40
2023-03-10T16:56:44.233Z,78.10
2023-03-10T16:59:28.806Z,78.10
2023-03-10T17:02:05.976Z,78.10
2023-03-10T17:04:37.548Z,78.40
2023-03-10T17:07:08.224Z,78.20
2023-03-10T17:09:44.221Z,78.20
2023-03-10T17:12:18.159Z,78.20
2023-03-10T17:14:51.027Z,78.10
2023-03-10T17:17:29.461Z,78.00
2023-03-10T17:20:04.554Z,77.80
2023-03-10T17:22:32.413Z,77.70
2023-03-10T17:25:08.062Z,77.60
2023-03-10T17:27:41.739Z,77.10
2023-03-10T17:30:20.005Z,77.20
2023-03-10T17:33:00.759Z,77.10
2023-03-10T17:35:40.626Z,77.20
2023-03-10T17:38:14.901Z,77.00
2023-03-10T17:40:49.616Z,77.10
2023-03-10T17:43:34.110Z,77.10
2023-03-10T17:49:06.167Z,76.60
2023-03-10T17:51:47.294Z,76.60
2023-03-10T17:54:21.835Z,76.40
2023-03-10T17:56:54.598Z,76.30
2023-03-10T17:59:28.580Z,76.00
2023-03-10T18:02:03.129Z,76.00
2023-03-10T18:04:47.243Z,75.90
2023-03-10T18:07:25.772Z,75.70
2023-03-10T18:10:06.500Z,75.70
2023-03-10T18:12:44.058Z,75.60
2023-03-10T18:15:23.086Z,75.70
2023-03-10T18:17:56.725Z,75.50
2023-03-10T18:20:34.491Z,75.40
2023-03-10T18:23:15.230Z,75.00
2023-03-10T18:25:47.111Z,74.90
2023-03-10T18:28:20.649Z,74.40
2023-03-10T18:30:55.420Z,74.10
2023-03-10T18:33:24.913Z,74.50
2023-03-10T18:35:54.827Z,74.20
2023-03-10T18:38:28.877Z,74.20
2023-03-10T18:41:01.196Z,74.10
2023-03-10T18:43:35.980Z,74.10
2023-03-10T18:46:11.083Z,74.20
2023-03-10T18:49:09.864Z,73.90
2023-03-10T18:51:52.861Z,72.90
2023-03-10T18:54:30.774Z,73.80
2023-03-10T18:57:04.536Z,73.10
2023-03-10T18:59:41.780Z,73.40
2023-03-10T19:02:17.623Z,73.00
2023-03-10T19:04:51.584Z,72.70
2023-03-10T19:07:28.751Z,72.40
2023-03-10T19:10:07.143Z,72.90
2023-03-10T19:12:37.795Z,72.80
2023-03-10T19:15:10.353Z,72.70
2023-03-10T19:17:41.781Z,72.30
2023-03-10T19:20:13.968Z,71.90
2023-03-10T19:22:57.236Z,72.10
2023-03-10T19:25:31.741Z,72.10
2023-03-10T19:28:02.602Z,72.10
2023-03-10T19:30:37.877Z,72.20
2023-03-10T19:33:12.134Z,71.90
2023-03-10T19:35:59.440Z,71.60
2023-03-10T19:38:36.144Z,71.70
2023-03-10T19:41:16.293Z,72.00
2023-03-10T19:43:55.691Z,72.30
2023-03-10T19:46:33.034Z,72.30
2023-03-10T19:49:11.661Z,72.40
2023-03-10T19:51:45.801Z,72.60
2023-03-10T19:54:19.502Z,72.70
2023-03-10T19:56:50.414Z,72.60
2023-03-10T19:59:23.321Z,72.60
2023-03-10T20:01:54.103Z,72.50
2023-03-10T20:04:37.730Z,72.30
2023-03-10T20:07:17.981Z,72.20
2023-03-10T20:09:50.239Z,72.30
2023-03-10T20:12:30.104Z,72.20
2023-03-10T20:15:15.727Z,72.10
2023-03-10T20:17:49.117Z,72.10
2023-03-10T20:20:25.977Z,72.50
2023-03-10T20:23:04.743Z,72.60
2023-03-10T20:25:45.181Z,72.30
2023-03-10T20:28:15.750Z,72.10
2023-03-10T20:30:46.854Z,71.90
2023-03-10T20:33:32.106Z,71.40
2023-03-10T20:36:18.073Z,70.90
2023-03-10T20:38:52.535Z,70.40
2023-03-10T20:41:32.799Z,70.50
2023-03-10T20:44:03.673Z,70.70
2023-03-10T20:46:36.664Z,70.20
2023-03-10T20:49:11.577Z,69.80
2023-03-10T20:51:42.894Z,70.20
2023-03-10T20:54:37.434Z,69.70
2023-03-10T20:57:18.695Z,68.70
2023-03-10T20:59:49.200Z,68.80
2023-03-10T21:02:24.125Z,69.10
2023-03-10T21:04:58.495Z,69.30
2023-03-10T21:07:31.561Z,68.80
2023-03-10T21:10:04.903Z,69.30
2023-03-10T21:12:45.636Z,69.30
2023-03-10T21:15:22.989Z,68.80
2023-03-10T21:17:54.100Z,69.30
2023-03-10T21:20:33.366Z,69.30
2023-03-10T21:23:13.352Z,69.10
2023-03-10T21:25:50.907Z,68.60
2023-03-10T21:28:39.317Z,68.60
2023-03-10T21:31:11.664Z,68.50
2023-03-10T21:33:50.939Z,68.40
2023-03-10T21:36:23.030Z,68.70
2023-03-10T21:38:57.663Z,68.80
2023-03-10T21:41:30.185Z,68.80
2023-03-10T21:44:11.496Z,68.30
2023-03-10T21:46:53.325Z,68.70
2023-03-10T21:49:27.274Z,68.30
2023-03-10T21:51:58.634Z,68.40
2023-03-10T21:54:35.617Z,68.70
2023-03-10T21:57:08.319Z,68.50
2023-03-10T21:59:42.861Z,68.70
2023-03-10T22:02:24.150Z,68.90
2023-03-10T22:04:55.626Z,68.90
2023-03-10T22:07:30.889Z,68.90
2023-03-10T22:10:09.031Z,68.70
2023-03-10T22:12:49.695Z,68.70
2023-03-10T22:15:42.009Z,68.30
2023-03-10T22:18:21.520Z,68.60
2023-03-10T22:20:53.546Z,68.40
2023-03-10T22:23:33.230Z,68.40
2023-03-10T22:26:09.729Z,68.30
2023-03-10T22:28:40.587Z,68.40
2023-03-10T22:31:15.737Z,68.30
2023-03-10T22:33:56.480Z,67.90
2023-03-10T22:36:33.492Z,67.70
2023-03-10T22:39:06.213Z,68.20
2023-03-10T22:41:44.932Z,68.30
2023-03-10T22:44:17.423Z,68.40
2023-03-10T22:46:56.574Z,68.00
2023-03-10T22:49:30.226Z,67.50
2023-03-10T22:52:06.380Z,67.40
2023-03-10T22:54:44.770Z,67.70
2023-03-10T22:57:16.181Z,67.80
2023-03-10T22:59:56.523Z,67.70
2023-03-10T23:02:39.615Z,67.80
2023-03-10T23:05:15.760Z,67.90
2023-03-10T23:07:58.347Z,67.80
2023-03-10T23:10:34.416Z,67.90
2023-03-10T23:13:11.449Z,67.80
2023-03-10T23:15:42.989Z,67.90
2023-03-10T23:18:18.509Z,67.70
2023-03-10T23:20:58.053Z,67.60
2023-03-10T23:23:31.031Z,67.70
2023-03-10T23:26:11.888Z,67.70
2023-03-10T23:28:45.268Z,67.40
2023-03-10T23:31:17.106Z,67.40
2023-03-10T23:34:01.159Z,67.40
2023-03-10T23:36:40.690Z,67.50
2023-03-10T23:39:16.756Z,67.50
2023-03-10T23:41:59.453Z,67.40
2023-03-10T23:44:37.969Z,67.50
2023-03-10T23:47:11.510Z,67.40
2023-03-10T23:49:53.273Z,67.50
2023-03-10T23:52:30.532Z,67.60
2023-03-10T23:55:01.390Z,67.50
2023-03-10T23:57:41.564Z,67.60
